메인 페이지
METAR-TAF:

METAR-TAF

공항 :

카라치, 파키스탄

진나 국제공항

위도: 24-54N, 경도: 067-08E, 고도: 21m

현재 날씨관측

예보는 40분 전, 08:55시(UTC)에 발표되었습니다.
북동17kt
온도 26°C
습도 20%
기압 1016 hPa
시정: 4000m
날린먼지

METAR: OPKC 180855Z 04017KT 4000 BLDU NSC 26/01 Q1016 TEMPO 05017G25KT

시각: 14:35 (09:35 UTC)

예보

예보는 6 시간 5분 전, 03:30시(UTC)에 발표되었습니다.
예보 대상 시간: 18일 06시부터 18일 15시까지 (UTC)
북동8kt, 순간 최대 풍속 18kt
시정: 6000m

TAF: OPKC 180330Z 1806/1815 05008G18KT 6000 NSC

4,000개 이상의 공항 관측 자료 및 예보 (METAR 및 TAF 보고).

지도상에서 검색 가능한 기상관측소가 노란 점과 빨간 점으로 표시되어 있습니다.

기상관측소 명을 보려면 표시 위로 마우스를 이동하세요.

날씨 관측과 예보를 보려면 클릭하세요.

지도 변경 : 확대하려면 엑스 표시가 있는 녹색 버튼, 축소하려면 빼기 표시가 있는 녹색 버튼, 다음 페이지의 지도를 보려면 녹색 화살표를 클릭하세요.


METAR-TAF: